sensor_id;sensor_type;location;lat;lon;timestamp;P1;durP1;ratioP1;P2;durP2;ratioP2
42754;SDS011;28407;51.830;5.684;2023-05-16T00:00:01;5.03;;;1.60;;
42754;SDS011;28407;51.830;5.684;2023-05-16T00:02:05;2.92;;;1.75;;
42754;SDS011;28407;51.830;5.684;2023-05-16T00:04:06;2.40;;;1.52;;
42754;SDS011;28407;51.830;5.684;2023-05-16T00:06:07;3.13;;;1.73;;
42754;SDS011;28407;51.830;5.684;2023-05-16T00:08:08;1.85;;;1.60;;
42754;SDS011;28407;51.830;5.684;2023-05-16T00:10:09;2.60;;;1.67;;
42754;SDS011;28407;51.830;5.684;2023-05-16T00:12:10;3.50;;;2.10;;
42754;SDS011;28407;51.830;5.684;2023-05-16T00:14:11;4.47;;;1.92;;
42754;SDS011;28407;51.830;5.684;2023-05-16T00:16:11;4.43;;;2.00;;
42754;SDS011;28407;51.830;5.684;2023-05-16T00:18:13;3.58;;;1.60;;
42754;SDS011;28407;51.830;5.684;2023-05-16T00:20:15;5.75;;;1.55;;
42754;SDS011;28407;51.830;5.684;2023-05-16T00:24:18;4.05;;;1.73;;
42754;SDS011;28407;51.830;5.684;2023-05-16T00:26:19;4.75;;;1.77;;
42754;SDS011;28407;51.830;5.684;2023-05-16T00:28:19;2.38;;;1.40;;
42754;SDS011;28407;51.830;5.684;2023-05-16T00:30:20;6.13;;;1.50;;
42754;SDS011;28407;51.830;5.684;2023-05-16T00:32:21;2.47;;;1.50;;
42754;SDS011;28407;51.830;5.684;2023-05-16T00:34:22;4.13;;;1.63;;
42754;SDS011;28407;51.830;5.684;2023-05-16T00:36:25;4.00;;;1.98;;
42754;SDS011;28407;51.830;5.684;2023-05-16T00:38:26;3.45;;;1.83;;
42754;SDS011;28407;51.830;5.684;2023-05-16T00:40:27;4.10;;;1.83;;
42754;SDS011;28407;51.830;5.684;2023-05-16T00:42:27;3.53;;;1.23;;
42754;SDS011;28407;51.830;5.684;2023-05-16T00:44:28;2.25;;;1.40;;
42754;SDS011;28407;51.830;5.684;2023-05-16T00:46:30;3.77;;;2.00;;
42754;SDS011;28407;51.830;5.684;2023-05-16T00:48:31;2.35;;;1.50;;
42754;SDS011;28407;51.830;5.684;2023-05-16T00:50:33;6.70;;;2.25;;
42754;SDS011;28407;51.830;5.684;2023-05-16T00:52:35;3.50;;;1.40;;
42754;SDS011;28407;51.830;5.684;2023-05-16T00:54:36;2.83;;;1.60;;
42754;SDS011;28407;51.830;5.684;2023-05-16T00:56:37;4.57;;;1.95;;
42754;SDS011;28407;51.830;5.684;2023-05-16T00:58:38;6.68;;;1.60;;
42754;SDS011;28407;51.830;5.684;2023-05-16T01:00:39;6.10;;;1.77;;
42754;SDS011;28407;51.830;5.684;2023-05-16T01:02:40;4.13;;;1.70;;
42754;SDS011;28407;51.830;5.684;2023-05-16T01:04:42;3.97;;;1.55;;
42754;SDS011;28407;51.830;5.684;2023-05-16T01:06:43;4.70;;;2.10;;
42754;SDS011;28407;51.830;5.684;2023-05-16T01:08:45;6.90;;;2.05;;
42754;SDS011;28407;51.830;5.684;2023-05-16T01:10:49;7.53;;;2.15;;
42754;SDS011;28407;51.830;5.684;2023-05-16T01:15:08;6.85;;;2.28;;
42754;SDS011;28407;51.830;5.684;2023-05-16T01:17:20;3.35;;;2.00;;
42754;SDS011;28407;51.830;5.684;2023-05-16T01:22:01;2.55;;;2.00;;
42754;SDS011;28407;51.830;5.684;2023-05-16T01:24:12;4.53;;;2.23;;
42754;SDS011;28407;51.830;5.684;2023-05-16T01:26:24;3.28;;;1.67;;
42754;SDS011;28407;51.830;5.684;2023-05-16T01:28:27;4.22;;;2.70;;
42754;SDS011;28407;51.830;5.684;2023-05-16T01:30:31;5.35;;;2.03;;
42754;SDS011;28407;51.830;5.684;2023-05-16T01:32:35;3.65;;;1.70;;
42754;SDS011;28407;51.830;5.684;2023-05-16T01:34:36;4.05;;;1.60;;
42754;SDS011;28407;51.830;5.684;2023-05-16T01:39:00;3.90;;;1.80;;
42754;SDS011;28407;51.830;5.684;2023-05-16T01:41:03;5.30;;;2.00;;
42754;SDS011;28407;51.830;5.684;2023-05-16T01:43:32;5.50;;;2.03;;
42754;SDS011;28407;51.830;5.684;2023-05-16T01:45:36;4.03;;;1.75;;
42754;SDS011;28407;51.830;5.684;2023-05-16T01:47:46;2.80;;;1.60;;
42754;SDS011;28407;51.830;5.684;2023-05-16T01:50:07;4.70;;;1.98;;
42754;SDS011;28407;51.830;5.684;2023-05-16T01:52:24;4.18;;;1.70;;
42754;SDS011;28407;51.830;5.684;2023-05-16T01:54:31;4.78;;;2.15;;
42754;SDS011;28407;51.830;5.684;2023-05-16T01:56:35;3.92;;;1.90;;
42754;SDS011;28407;51.830;5.684;2023-05-16T01:58:36;2.97;;;1.60;;
42754;SDS011;28407;51.830;5.684;2023-05-16T02:00:39;2.25;;;1.45;;
42754;SDS011;28407;51.830;5.684;2023-05-16T02:04:42;4.97;;;1.65;;
42754;SDS011;28407;51.830;5.684;2023-05-16T02:06:43;6.43;;;2.53;;
42754;SDS011;28407;51.830;5.684;2023-05-16T02:08:44;3.22;;;1.75;;
42754;SDS011;28407;51.830;5.684;2023-05-16T02:10:44;3.47;;;1.80;;
42754;SDS011;28407;51.830;5.684;2023-05-16T02:12:45;5.15;;;1.70;;
42754;SDS011;28407;51.830;5.684;2023-05-16T02:14:46;6.88;;;2.05;;
42754;SDS011;28407;51.830;5.684;2023-05-16T02:16:46;4.55;;;1.70;;
42754;SDS011;28407;51.830;5.684;2023-05-16T02:18:48;4.28;;;1.83;;
42754;SDS011;28407;51.830;5.684;2023-05-16T02:20:48;3.58;;;2.28;;
42754;SDS011;28407;51.830;5.684;2023-05-16T02:22:49;2.95;;;1.73;;
42754;SDS011;28407;51.830;5.684;2023-05-16T02:24:50;3.88;;;1.60;;
42754;SDS011;28407;51.830;5.684;2023-05-16T02:26:52;3.80;;;1.92;;
42754;SDS011;28407;51.830;5.684;2023-05-16T02:28:52;3.65;;;1.67;;
42754;SDS011;28407;51.830;5.684;2023-05-16T02:30:56;4.85;;;1.90;;
42754;SDS011;28407;51.830;5.684;2023-05-16T02:32:58;4.93;;;2.95;;
42754;SDS011;28407;51.830;5.684;2023-05-16T02:34:58;3.17;;;1.77;;
42754;SDS011;28407;51.830;5.684;2023-05-16T02:36:59;4.85;;;1.85;;
42754;SDS011;28407;51.830;5.684;2023-05-16T02:39:00;3.70;;;2.45;;
42754;SDS011;28407;51.830;5.684;2023-05-16T02:41:01;2.25;;;1.83;;
42754;SDS011;28407;51.830;5.684;2023-05-16T02:43:01;4.07;;;2.10;;
42754;SDS011;28407;51.830;5.684;2023-05-16T02:45:02;2.78;;;1.70;;
42754;SDS011;28407;51.830;5.684;2023-05-16T02:47:03;3.25;;;2.28;;
42754;SDS011;28407;51.830;5.684;2023-05-16T02:49:03;3.50;;;1.90;;
42754;SDS011;28407;51.830;5.684;2023-05-16T02:51:04;3.30;;;1.80;;
42754;SDS011;28407;51.830;5.684;2023-05-16T02:53:05;5.20;;;2.05;;
42754;SDS011;28407;51.830;5.684;2023-05-16T02:55:06;4.75;;;2.13;;
42754;SDS011;28407;51.830;5.684;2023-05-16T02:57:07;3.05;;;1.77;;
42754;SDS011;28407;51.830;5.684;2023-05-16T02:59:07;5.60;;;1.77;;
42754;SDS011;28407;51.830;5.684;2023-05-16T03:01:08;7.03;;;1.75;;
42754;SDS011;28407;51.830;5.684;2023-05-16T03:03:09;3.95;;;2.00;;
42754;SDS011;28407;51.830;5.684;2023-05-16T03:05:09;3.42;;;1.60;;
42754;SDS011;28407;51.830;5.684;2023-05-16T03:07:10;2.20;;;2.00;;
42754;SDS011;28407;51.830;5.684;2023-05-16T03:09:11;2.60;;;2.38;;
42754;SDS011;28407;51.830;5.684;2023-05-16T03:11:12;2.60;;;1.60;;
42754;SDS011;28407;51.830;5.684;2023-05-16T03:15:14;4.53;;;2.00;;
42754;SDS011;28407;51.830;5.684;2023-05-16T03:17:16;2.78;;;1.70;;
42754;SDS011;28407;51.830;5.684;2023-05-16T03:19:17;8.63;;;1.90;;
42754;SDS011;28407;51.830;5.684;2023-05-16T03:21:17;5.43;;;2.03;;
42754;SDS011;28407;51.830;5.684;2023-05-16T03:23:18;4.68;;;1.80;;
42754;SDS011;28407;51.830;5.684;2023-05-16T03:25:20;3.65;;;1.95;;
42754;SDS011;28407;51.830;5.684;2023-05-16T03:27:21;2.63;;;1.60;;
42754;SDS011;28407;51.830;5.684;2023-05-16T03:29:23;4.78;;;1.88;;
42754;SDS011;28407;51.830;5.684;2023-05-16T03:31:24;6.07;;;2.10;;
42754;SDS011;28407;51.830;5.684;2023-05-16T03:33:25;5.10;;;2.63;;
42754;SDS011;28407;51.830;5.684;2023-05-16T03:35:26;4.18;;;2.20;;
42754;SDS011;28407;51.830;5.684;2023-05-16T03:37:27;3.42;;;2.28;;
42754;SDS011;28407;51.830;5.684;2023-05-16T03:39:28;4.28;;;1.80;;
42754;SDS011;28407;51.830;5.684;2023-05-16T03:41:29;4.85;;;2.03;;
42754;SDS011;28407;51.830;5.684;2023-05-16T03:43:29;8.07;;;2.38;;
42754;SDS011;28407;51.830;5.684;2023-05-16T03:45:30;2.53;;;2.03;;
42754;SDS011;28407;51.830;5.684;2023-05-16T03:47:31;10.00;;;2.67;;
42754;SDS011;28407;51.830;5.684;2023-05-16T03:49:31;2.78;;;1.80;;
42754;SDS011;28407;51.830;5.684;2023-05-16T03:51:32;4.53;;;1.90;;
42754;SDS011;28407;51.830;5.684;2023-05-16T03:53:33;4.03;;;1.90;;
42754;SDS011;28407;51.830;5.684;2023-05-16T03:55:33;4.45;;;1.70;;
42754;SDS011;28407;51.830;5.684;2023-05-16T03:57:35;4.32;;;2.00;;
42754;SDS011;28407;51.830;5.684;2023-05-16T03:59:37;5.00;;;2.30;;
42754;SDS011;28407;51.830;5.684;2023-05-16T04:01:38;5.07;;;2.03;;
42754;SDS011;28407;51.830;5.684;2023-05-16T04:03:38;3.50;;;1.90;;
42754;SDS011;28407;51.830;5.684;2023-05-16T04:05:39;3.45;;;2.65;;
42754;SDS011;28407;51.830;5.684;2023-05-16T04:07:40;5.10;;;2.20;;
42754;SDS011;28407;51.830;5.684;2023-05-16T04:09:40;2.75;;;1.60;;
42754;SDS011;28407;51.830;5.684;2023-05-16T04:11:41;2.80;;;2.00;;
42754;SDS011;28407;51.830;5.684;2023-05-16T04:13:42;3.78;;;1.80;;
42754;SDS011;28407;51.830;5.684;2023-05-16T04:15:42;3.22;;;1.88;;
42754;SDS011;28407;51.830;5.684;2023-05-16T04:17:43;3.47;;;1.80;;
42754;SDS011;28407;51.830;5.684;2023-05-16T04:19:44;3.38;;;2.25;;
42754;SDS011;28407;51.830;5.684;2023-05-16T04:21:45;5.75;;;2.00;;
42754;SDS011;28407;51.830;5.684;2023-05-16T04:23:45;3.50;;;1.90;;
42754;SDS011;28407;51.830;5.684;2023-05-16T04:25:46;3.15;;;1.92;;
42754;SDS011;28407;51.830;5.684;2023-05-16T04:27:47;3.25;;;1.80;;
42754;SDS011;28407;51.830;5.684;2023-05-16T04:29:47;5.38;;;3.25;;
42754;SDS011;28407;51.830;5.684;2023-05-16T04:31:48;3.95;;;1.83;;
42754;SDS011;28407;51.830;5.684;2023-05-16T04:33:49;5.90;;;2.42;;
42754;SDS011;28407;51.830;5.684;2023-05-16T04:35:49;4.78;;;1.90;;
42754;SDS011;28407;51.830;5.684;2023-05-16T04:37:52;5.68;;;2.00;;
42754;SDS011;28407;51.830;5.684;2023-05-16T04:39:52;5.78;;;2.08;;
42754;SDS011;28407;51.830;5.684;2023-05-16T04:41:53;3.05;;;2.03;;
42754;SDS011;28407;51.830;5.684;2023-05-16T04:43:59;4.82;;;1.80;;
42754;SDS011;28407;51.830;5.684;2023-05-16T04:46:03;3.35;;;2.00;;
42754;SDS011;28407;51.830;5.684;2023-05-16T04:48:03;4.93;;;2.10;;
42754;SDS011;28407;51.830;5.684;2023-05-16T04:50:04;3.85;;;2.30;;
42754;SDS011;28407;51.830;5.684;2023-05-16T04:52:05;8.20;;;2.65;;
42754;SDS011;28407;51.830;5.684;2023-05-16T04:54:07;6.22;;;1.80;;
42754;SDS011;28407;51.830;5.684;2023-05-16T04:56:08;3.90;;;2.00;;
42754;SDS011;28407;51.830;5.684;2023-05-16T04:58:08;4.90;;;1.88;;
42754;SDS011;28407;51.830;5.684;2023-05-16T05:00:09;2.55;;;1.70;;
42754;SDS011;28407;51.830;5.684;2023-05-16T05:02:11;6.70;;;1.95;;
42754;SDS011;28407;51.830;5.684;2023-05-16T05:04:11;3.20;;;1.90;;
42754;SDS011;28407;51.830;5.684;2023-05-16T05:06:12;3.50;;;2.05;;
42754;SDS011;28407;51.830;5.684;2023-05-16T05:08:12;5.55;;;2.38;;
42754;SDS011;28407;51.830;5.684;2023-05-16T05:10:13;5.60;;;2.25;;
42754;SDS011;28407;51.830;5.684;2023-05-16T05:12:14;4.43;;;1.90;;
42754;SDS011;28407;51.830;5.684;2023-05-16T05:14:14;2.92;;;1.98;;
42754;SDS011;28407;51.830;5.684;2023-05-16T05:16:15;2.60;;;2.08;;
42754;SDS011;28407;51.830;5.684;2023-05-16T05:18:16;3.22;;;2.05;;
42754;SDS011;28407;51.830;5.684;2023-05-16T05:20:17;2.95;;;1.90;;
42754;SDS011;28407;51.830;5.684;2023-05-16T05:22:18;4.50;;;1.90;;
42754;SDS011;28407;51.830;5.684;2023-05-16T05:24:18;3.95;;;1.92;;
42754;SDS011;28407;51.830;5.684;2023-05-16T05:26:19;5.45;;;2.00;;
42754;SDS011;28407;51.830;5.684;2023-05-16T05:30:21;3.83;;;2.20;;
42754;SDS011;28407;51.830;5.684;2023-05-16T05:32:22;3.58;;;1.80;;
42754;SDS011;28407;51.830;5.684;2023-05-16T05:34:23;4.22;;;1.77;;
42754;SDS011;28407;51.830;5.684;2023-05-16T05:36:23;7.95;;;3.83;;
42754;SDS011;28407;51.830;5.684;2023-05-16T05:38:24;3.33;;;2.00;;
42754;SDS011;28407;51.830;5.684;2023-05-16T05:40:25;4.28;;;1.98;;
42754;SDS011;28407;51.830;5.684;2023-05-16T05:42:25;3.95;;;2.08;;
42754;SDS011;28407;51.830;5.684;2023-05-16T05:44:26;9.13;;;2.15;;
42754;SDS011;28407;51.830;5.684;2023-05-16T05:46:26;4.10;;;1.90;;
42754;SDS011;28407;51.830;5.684;2023-05-16T05:48:27;2.55;;;2.15;;
42754;SDS011;28407;51.830;5.684;2023-05-16T05:50:29;4.10;;;2.78;;
42754;SDS011;28407;51.830;5.684;2023-05-16T05:52:29;3.20;;;1.98;;
42754;SDS011;28407;51.830;5.684;2023-05-16T05:54:30;2.78;;;2.53;;
42754;SDS011;28407;51.830;5.684;2023-05-16T05:56:31;4.18;;;2.17;;
42754;SDS011;28407;51.830;5.684;2023-05-16T05:58:31;6.85;;;2.13;;
42754;SDS011;28407;51.830;5.684;2023-05-16T06:00:32;3.17;;;2.10;;
42754;SDS011;28407;51.830;5.684;2023-05-16T06:02:32;4.35;;;1.77;;
42754;SDS011;28407;51.830;5.684;2023-05-16T06:04:33;4.63;;;1.50;;
42754;SDS011;28407;51.830;5.684;2023-05-16T06:06:34;2.67;;;1.80;;
42754;SDS011;28407;51.830;5.684;2023-05-16T06:08:35;5.53;;;3.17;;
42754;SDS011;28407;51.830;5.684;2023-05-16T06:10:36;4.03;;;1.90;;
42754;SDS011;28407;51.830;5.684;2023-05-16T06:12:36;3.53;;;2.00;;
42754;SDS011;28407;51.830;5.684;2023-05-16T06:14:37;3.30;;;1.83;;
42754;SDS011;28407;51.830;5.684;2023-05-16T06:16:37;3.17;;;1.60;;
42754;SDS011;28407;51.830;5.684;2023-05-16T06:18:39;2.97;;;1.85;;
42754;SDS011;28407;51.830;5.684;2023-05-16T06:20:39;2.30;;;1.92;;
42754;SDS011;28407;51.830;5.684;2023-05-16T06:22:40;2.80;;;1.90;;
42754;SDS011;28407;51.830;5.684;2023-05-16T06:24:41;7.65;;;2.22;;
42754;SDS011;28407;51.830;5.684;2023-05-16T06:26:42;4.63;;;2.97;;
42754;SDS011;28407;51.830;5.684;2023-05-16T06:28:45;4.35;;;1.98;;
42754;SDS011;28407;51.830;5.684;2023-05-16T06:30:45;3.67;;;1.73;;
42754;SDS011;28407;51.830;5.684;2023-05-16T06:32:46;5.75;;;1.90;;
42754;SDS011;28407;51.830;5.684;2023-05-16T06:34:48;3.30;;;1.52;;
42754;SDS011;28407;51.830;5.684;2023-05-16T06:36:48;2.60;;;1.80;;
42754;SDS011;28407;51.830;5.684;2023-05-16T06:38:49;2.42;;;1.65;;
42754;SDS011;28407;51.830;5.684;2023-05-16T06:40:50;2.65;;;1.90;;
42754;SDS011;28407;51.830;5.684;2023-05-16T06:42:50;4.57;;;1.70;;
42754;SDS011;28407;51.830;5.684;2023-05-16T06:44:51;3.22;;;1.80;;
42754;SDS011;28407;51.830;5.684;2023-05-16T06:46:51;2.55;;;1.55;;
42754;SDS011;28407;51.830;5.684;2023-05-16T06:48:52;6.20;;;2.85;;
42754;SDS011;28407;51.830;5.684;2023-05-16T06:50:52;2.85;;;1.60;;
42754;SDS011;28407;51.830;5.684;2023-05-16T06:52:53;3.42;;;1.60;;
42754;SDS011;28407;51.830;5.684;2023-05-16T06:54:54;3.45;;;1.67;;
42754;SDS011;28407;51.830;5.684;2023-05-16T06:56:55;1.40;;;1.30;;
42754;SDS011;28407;51.830;5.684;2023-05-16T06:58:55;5.03;;;2.00;;
42754;SDS011;28407;51.830;5.684;2023-05-16T07:00:56;3.83;;;1.83;;
42754;SDS011;28407;51.830;5.684;2023-05-16T07:02:57;1.80;;;1.40;;
42754;SDS011;28407;51.830;5.684;2023-05-16T07:04:57;2.40;;;1.60;;
42754;SDS011;28407;51.830;5.684;2023-05-16T07:06:58;2.72;;;1.70;;
42754;SDS011;28407;51.830;5.684;2023-05-16T07:08:58;4.13;;;1.70;;
42754;SDS011;28407;51.830;5.684;2023-05-16T07:11:01;3.63;;;1.60;;
42754;SDS011;28407;51.830;5.684;2023-05-16T07:13:01;2.78;;;1.40;;
42754;SDS011;28407;51.830;5.684;2023-05-16T07:15:04;3.58;;;1.90;;
42754;SDS011;28407;51.830;5.684;2023-05-16T07:17:05;4.10;;;1.80;;
42754;SDS011;28407;51.830;5.684;2023-05-16T07:19:05;3.25;;;1.70;;
42754;SDS011;28407;51.830;5.684;2023-05-16T07:21:07;3.20;;;1.50;;
42754;SDS011;28407;51.830;5.684;2023-05-16T07:23:08;3.08;;;1.40;;
42754;SDS011;28407;51.830;5.684;2023-05-16T07:25:09;1.80;;;1.27;;
42754;SDS011;28407;51.830;5.684;2023-05-16T07:27:11;2.72;;;1.70;;
42754;SDS011;28407;51.830;5.684;2023-05-16T07:29:12;4.35;;;1.75;;
42754;SDS011;28407;51.830;5.684;2023-05-16T07:31:13;2.67;;;1.73;;
42754;SDS011;28407;51.830;5.684;2023-05-16T07:33:13;1.67;;;1.30;;
42754;SDS011;28407;51.830;5.684;2023-05-16T07:35:14;1.80;;;1.50;;
42754;SDS011;28407;51.830;5.684;2023-05-16T07:37:15;1.73;;;1.50;;
42754;SDS011;28407;51.830;5.684;2023-05-16T07:39:15;4.15;;;1.70;;
42754;SDS011;28407;51.830;5.684;2023-05-16T07:41:16;1.88;;;1.60;;
42754;SDS011;28407;51.830;5.684;2023-05-16T07:43:16;2.20;;;1.40;;
42754;SDS011;28407;51.830;5.684;2023-05-16T07:45:17;2.58;;;1.50;;
42754;SDS011;28407;51.830;5.684;2023-05-16T07:47:18;2.42;;;1.40;;
42754;SDS011;28407;51.830;5.684;2023-05-16T07:49:18;2.13;;;1.45;;
42754;SDS011;28407;51.830;5.684;2023-05-16T07:51:19;3.97;;;1.50;;
42754;SDS011;28407;51.830;5.684;2023-05-16T07:53:20;6.10;;;3.47;;
42754;SDS011;28407;51.830;5.684;2023-05-16T07:55:21;3.92;;;1.60;;
42754;SDS011;28407;51.830;5.684;2023-05-16T07:57:22;2.90;;;1.40;;
42754;SDS011;28407;51.830;5.684;2023-05-16T07:59:23;1.73;;;1.55;;
42754;SDS011;28407;51.830;5.684;2023-05-16T08:01:23;4.25;;;1.42;;
42754;SDS011;28407;51.830;5.684;2023-05-16T08:03:24;2.05;;;1.60;;
42754;SDS011;28407;51.830;5.684;2023-05-16T08:05:25;1.75;;;1.60;;
42754;SDS011;28407;51.830;5.684;2023-05-16T08:07:25;3.25;;;1.55;;
42754;SDS011;28407;51.830;5.684;2023-05-16T08:09:26;2.63;;;1.40;;
42754;SDS011;28407;51.830;5.684;2023-05-16T08:11:27;2.47;;;1.45;;
42754;SDS011;28407;51.830;5.684;2023-05-16T08:13:27;1.55;;;1.35;;
42754;SDS011;28407;51.830;5.684;2023-05-16T08:15:29;1.75;;;1.40;;
42754;SDS011;28407;51.830;5.684;2023-05-16T08:17:30;3.42;;;1.50;;
42754;SDS011;28407;51.830;5.684;2023-05-16T08:19:30;2.00;;;1.55;;
42754;SDS011;28407;51.830;5.684;2023-05-16T08:21:32;2.58;;;1.45;;
42754;SDS011;28407;51.830;5.684;2023-05-16T08:23:32;2.70;;;1.48;;
42754;SDS011;28407;51.830;5.684;2023-05-16T08:25:33;2.17;;;1.35;;
42754;SDS011;28407;51.830;5.684;2023-05-16T08:27:34;3.67;;;1.75;;
42754;SDS011;28407;51.830;5.684;2023-05-16T08:29:35;1.90;;;1.42;;
42754;SDS011;28407;51.830;5.684;2023-05-16T08:31:35;2.30;;;1.40;;
42754;SDS011;28407;51.830;5.684;2023-05-16T08:33:36;1.75;;;1.33;;
42754;SDS011;28407;51.830;5.684;2023-05-16T08:35:36;1.20;;;1.10;;
42754;SDS011;28407;51.830;5.684;2023-05-16T08:37:41;2.10;;;1.30;;
42754;SDS011;28407;51.830;5.684;2023-05-16T08:39:42;1.65;;;1.30;;
42754;SDS011;28407;51.830;5.684;2023-05-16T08:41:43;2.88;;;2.00;;
42754;SDS011;28407;51.830;5.684;2023-05-16T08:43:43;2.88;;;1.30;;
42754;SDS011;28407;51.830;5.684;2023-05-16T08:45:44;1.58;;;1.30;;
42754;SDS011;28407;51.830;5.684;2023-05-16T08:47:45;2.15;;;1.38;;
42754;SDS011;28407;51.830;5.684;2023-05-16T08:49:49;2.45;;;1.30;;
42754;SDS011;28407;51.830;5.684;2023-05-16T08:53:59;4.15;;;2.45;;
42754;SDS011;28407;51.830;5.684;2023-05-16T08:56:05;1.77;;;1.38;;
42754;SDS011;28407;51.830;5.684;2023-05-16T08:58:07;1.63;;;1.45;;
42754;SDS011;28407;51.830;5.684;2023-05-16T09:00:08;3.90;;;1.30;;
42754;SDS011;28407;51.830;5.684;2023-05-16T09:02:10;4.38;;;1.80;;
42754;SDS011;28407;51.830;5.684;2023-05-16T09:04:11;1.35;;;1.23;;
42754;SDS011;28407;51.830;5.684;2023-05-16T09:06:12;1.75;;;1.25;;
42754;SDS011;28407;51.830;5.684;2023-05-16T09:08:13;1.73;;;1.33;;
42754;SDS011;28407;51.830;5.684;2023-05-16T09:10:13;3.00;;;1.20;;
42754;SDS011;28407;51.830;5.684;2023-05-16T09:12:14;1.73;;;1.27;;
42754;SDS011;28407;51.830;5.684;2023-05-16T09:14:14;1.30;;;1.20;;
42754;SDS011;28407;51.830;5.684;2023-05-16T09:16:16;1.05;;;1.05;;
42754;SDS011;28407;51.830;5.684;2023-05-16T09:18:18;1.48;;;1.20;;
42754;SDS011;28407;51.830;5.684;2023-05-16T09:20:21;1.65;;;1.20;;
42754;SDS011;28407;51.830;5.684;2023-05-16T09:22:21;1.30;;;1.20;;
42754;SDS011;28407;51.830;5.684;2023-05-16T09:24:24;1.77;;;1.23;;
42754;SDS011;28407;51.830;5.684;2023-05-16T09:26:25;1.58;;;1.45;;
42754;SDS011;28407;51.830;5.684;2023-05-16T09:28:26;1.20;;;1.10;;
42754;SDS011;28407;51.830;5.684;2023-05-16T09:30:28;2.25;;;1.20;;
42754;SDS011;28407;51.830;5.684;2023-05-16T09:32:30;3.78;;;1.30;;
42754;SDS011;28407;51.830;5.684;2023-05-16T09:34:30;1.73;;;1.20;;
42754;SDS011;28407;51.830;5.684;2023-05-16T09:36:36;1.40;;;1.20;;
42754;SDS011;28407;51.830;5.684;2023-05-16T09:38:37;1.35;;;1.10;;
42754;SDS011;28407;51.830;5.684;2023-05-16T09:40:39;2.58;;;1.08;;
42754;SDS011;28407;51.830;5.684;2023-05-16T09:42:41;2.70;;;1.42;;
42754;SDS011;28407;51.830;5.684;2023-05-16T09:46:47;1.58;;;1.20;;
42754;SDS011;28407;51.830;5.684;2023-05-16T09:48:48;2.15;;;1.30;;
42754;SDS011;28407;51.830;5.684;2023-05-16T09:50:51;2.28;;;1.10;;
42754;SDS011;28407;51.830;5.684;2023-05-16T09:52:53;3.03;;;1.50;;
42754;SDS011;28407;51.830;5.684;2023-05-16T09:54:53;2.08;;;1.33;;
42754;SDS011;28407;51.830;5.684;2023-05-16T09:56:54;2.90;;;1.20;;
42754;SDS011;28407;51.830;5.684;2023-05-16T09:58:54;1.80;;;1.20;;
42754;SDS011;28407;51.830;5.684;2023-05-16T10:00:55;2.85;;;1.30;;
42754;SDS011;28407;51.830;5.684;2023-05-16T10:02:57;2.33;;;1.20;;
42754;SDS011;28407;51.830;5.684;2023-05-16T10:04:59;1.33;;;1.20;;
42754;SDS011;28407;51.830;5.684;2023-05-16T10:07:01;3.92;;;1.25;;
42754;SDS011;28407;51.830;5.684;2023-05-16T10:09:03;2.35;;;1.50;;
42754;SDS011;28407;51.830;5.684;2023-05-16T10:11:04;1.75;;;1.30;;
42754;SDS011;28407;51.830;5.684;2023-05-16T10:13:06;1.65;;;1.00;;
42754;SDS011;28407;51.830;5.684;2023-05-16T10:15:09;2.75;;;1.50;;
42754;SDS011;28407;51.830;5.684;2023-05-16T10:17:11;1.95;;;1.13;;
42754;SDS011;28407;51.830;5.684;2023-05-16T10:19:15;2.88;;;1.10;;
42754;SDS011;28407;51.830;5.684;2023-05-16T10:21:19;2.28;;;1.40;;
42754;SDS011;28407;51.830;5.684;2023-05-16T10:23:21;2.53;;;1.20;;
42754;SDS011;28407;51.830;5.684;2023-05-16T10:27:31;3.17;;;1.10;;
42754;SDS011;28407;51.830;5.684;2023-05-16T10:29:32;1.48;;;1.00;;
42754;SDS011;28407;51.830;5.684;2023-05-16T10:31:33;2.95;;;1.20;;
42754;SDS011;28407;51.830;5.684;2023-05-16T10:33:35;1.98;;;1.10;;
42754;SDS011;28407;51.830;5.684;2023-05-16T10:35:36;4.28;;;1.85;;
42754;SDS011;28407;51.830;5.684;2023-05-16T10:37:37;2.40;;;1.00;;
42754;SDS011;28407;51.830;5.684;2023-05-16T10:39:38;1.88;;;0.98;;
42754;SDS011;28407;51.830;5.684;2023-05-16T10:41:39;1.90;;;1.02;;
42754;SDS011;28407;51.830;5.684;2023-05-16T10:43:43;0.80;;;0.80;;
42754;SDS011;28407;51.830;5.684;2023-05-16T10:45:45;3.72;;;1.20;;
42754;SDS011;28407;51.830;5.684;2023-05-16T10:47:57;4.55;;;1.05;;
42754;SDS011;28407;51.830;5.684;2023-05-16T10:49:58;1.25;;;0.80;;
42754;SDS011;28407;51.830;5.684;2023-05-16T10:52:11;1.80;;;0.90;;
42754;SDS011;28407;51.830;5.684;2023-05-16T10:54:12;4.18;;;1.10;;
42754;SDS011;28407;51.830;5.684;2023-05-16T10:56:14;1.73;;;0.90;;
42754;SDS011;28407;51.830;5.684;2023-05-16T10:58:38;2.35;;;1.00;;
42754;SDS011;28407;51.830;5.684;2023-05-16T11:00:42;1.65;;;0.75;;
42754;SDS011;28407;51.830;5.684;2023-05-16T11:02:43;2.45;;;0.90;;
42754;SDS011;28407;51.830;5.684;2023-05-16T11:04:44;2.90;;;0.90;;
42754;SDS011;28407;51.830;5.684;2023-05-16T11:06:46;1.42;;;0.90;;
42754;SDS011;28407;51.830;5.684;2023-05-16T11:13:53;1.95;;;0.80;;
42754;SDS011;28407;51.830;5.684;2023-05-16T11:16:25;1.30;;;0.77;;
42754;SDS011;28407;51.830;5.684;2023-05-16T11:18:30;1.55;;;0.77;;
42754;SDS011;28407;51.830;5.684;2023-05-16T11:20:32;1.48;;;0.90;;
42754;SDS011;28407;51.830;5.684;2023-05-16T11:22:37;2.45;;;1.48;;
42754;SDS011;28407;51.830;5.684;2023-05-16T11:26:52;1.88;;;0.90;;
42754;SDS011;28407;51.830;5.684;2023-05-16T11:28:53;1.33;;;0.82;;
42754;SDS011;28407;51.830;5.684;2023-05-16T11:30:55;2.38;;;0.80;;
42754;SDS011;28407;51.830;5.684;2023-05-16T11:32:58;2.80;;;0.80;;
42754;SDS011;28407;51.830;5.684;2023-05-16T11:34:59;2.08;;;0.90;;
42754;SDS011;28407;51.830;5.684;2023-05-16T11:37:01;2.03;;;0.85;;
42754;SDS011;28407;51.830;5.684;2023-05-16T11:39:07;1.83;;;1.10;;
42754;SDS011;28407;51.830;5.684;2023-05-16T11:41:11;0.85;;;0.80;;
42754;SDS011;28407;51.830;5.684;2023-05-16T11:43:17;0.93;;;0.63;;
42754;SDS011;28407;51.830;5.684;2023-05-16T11:45:19;1.73;;;0.70;;
42754;SDS011;28407;51.830;5.684;2023-05-16T11:47:21;1.27;;;0.75;;
42754;SDS011;28407;51.830;5.684;2023-05-16T11:49:23;1.42;;;0.70;;
42754;SDS011;28407;51.830;5.684;2023-05-16T11:51:25;1.02;;;0.70;;
42754;SDS011;28407;51.830;5.684;2023-05-16T11:53:26;1.58;;;0.80;;
42754;SDS011;28407;51.830;5.684;2023-05-16T11:55:29;2.15;;;0.77;;
42754;SDS011;28407;51.830;5.684;2023-05-16T11:57:31;0.95;;;0.70;;
42754;SDS011;28407;51.830;5.684;2023-05-16T11:59:32;0.73;;;0.60;;
42754;SDS011;28407;51.830;5.684;2023-05-16T12:01:37;1.55;;;0.80;;
42754;SDS011;28407;51.830;5.684;2023-05-16T12:03:38;1.98;;;0.90;;
42754;SDS011;28407;51.830;5.684;2023-05-16T12:05:48;3.20;;;0.80;;
42754;SDS011;28407;51.830;5.684;2023-05-16T12:07:56;1.35;;;0.70;;
42754;SDS011;28407;51.830;5.684;2023-05-16T12:09:58;1.63;;;0.80;;
42754;SDS011;28407;51.830;5.684;2023-05-16T12:12:01;3.65;;;1.05;;
42754;SDS011;28407;51.830;5.684;2023-05-16T12:14:05;2.13;;;1.00;;
42754;SDS011;28407;51.830;5.684;2023-05-16T12:16:07;1.45;;;0.80;;
42754;SDS011;28407;51.830;5.684;2023-05-16T12:18:10;1.23;;;0.77;;
42754;SDS011;28407;51.830;5.684;2023-05-16T12:20:11;3.95;;;1.10;;
42754;SDS011;28407;51.830;5.684;2023-05-16T12:22:16;1.52;;;1.05;;
42754;SDS011;28407;51.830;5.684;2023-05-16T12:24:19;1.17;;;0.70;;
42754;SDS011;28407;51.830;5.684;2023-05-16T12:26:24;4.40;;;0.93;;
42754;SDS011;28407;51.830;5.684;2023-05-16T12:28:31;1.90;;;0.70;;
42754;SDS011;28407;51.830;5.684;2023-05-16T12:30:33;1.02;;;0.70;;
42754;SDS011;28407;51.830;5.684;2023-05-16T12:32:37;1.52;;;0.90;;
42754;SDS011;28407;51.830;5.684;2023-05-16T12:34:37;1.67;;;0.85;;
42754;SDS011;28407;51.830;5.684;2023-05-16T12:36:38;2.03;;;0.80;;
42754;SDS011;28407;51.830;5.684;2023-05-16T12:38:39;2.78;;;0.93;;
42754;SDS011;28407;51.830;5.684;2023-05-16T12:40:40;1.65;;;0.80;;
42754;SDS011;28407;51.830;5.684;2023-05-16T12:42:42;1.75;;;0.80;;